Del Valle, TX (78617)

10:43 AM CST on January 31, 2015 (GMT -0600)
Berdoll Farms | Change Station
CLOSE
Current Station
Personal Weather Station
Location: Texas, TX
Elevation: 489 ft
Nearby Weather Stations

Elev 489 ft 30.17 °N, 97.61 °W | Updated 6 seconds ago

Overcast
Overcast
52.7 °F
Feels Like 52.7 °F
N
3.8
Wind Variable Wind from East

Today
High -- | Low -- °F
--% Chance of Precip.
Yesterday
High -- | Low -- °F
Precip. -- in
7:21 AM 6:06 PM
Waxing Gibbous, 90% visible
Pressure 30.15 in
Visibility 10.0 miles
Clouds Overcast 1400 ft
Dew Point 46 °F
Humidity 78%
Rainfall 0.00 in
Snow Depth Not available.
UV 1 out of 12
Pollen 6.40 out of 12
Air Quality Not available.
Flu Activity Not available.
METAR KAUS 311553Z 09004KT 10SM OVC014 11/07 A3015 RMK AO2 SLP210 T01060067

More Conditions Fewer Conditions

Pressure 30.15 in
Visibility 10.0 miles
Clouds Overcast 1400 ft
Dew Point 46 °F
Humidity 78%
Rainfall 0.00 in
Snow Depth Not available.
UV 1 out of 12
Pollen 6.40 out of 12
Air Quality Not available.
Flu Activity Not available.
METAR KAUS 311553Z 09004KT 10SM OVC014 11/07 A3015 RMK AO2 SLP210 T01060067

More Conditions Fewer Conditions

Nowcast | as of 9:51 am CST on January 31, 2015

Light rain showers will move north and east across the Texas Hill country and Interstate 35 corridor. Rain rates of a few hundredths of an inch per hour are possible. Some patch fog will also be possible.

×

10-Day Weather Forecast

Almanac

Astronomy

Jan. 31, 2015 Rise Set
Actual Time
Civil Twilight
Nautical Twilight
Astronomical Twilight
Moon
Length of Visible Light
Length of Day
Tomorrow will be .
, % of the Moon is Illuminated

Today's Extremes

State Highs State Lows

Community

WunderPhotos

Upload Photos

1,792,105 photos uploaded!

WunderBlogs® & News

Nearby

Air Quality

  Air Quality AQ Index Pollutant
Not available.

Snow Depth

Station Depth Elevation

Earthquake Activity

City Distance Mag. Time & Date
Minimum magnitude displayed is 2.5.

Coastal Water Temperatures

Place Temperature

Nearby Weather Stations